Elizabethton, TN

11:17 EST le 25 janvier 2015 (GMT -0500)
Boone | Change Station
CLOSE
Current Station
Aéroport
Location: Boone,
Altitude: 3146 ft
Stations météo à proximité
Avis météorologiques actifs: Special Statement

Alt. 3146 ft 36.20 °N, 81.65 °W | Updated 22 minutes ago

Ciel dégagé
Ciel dégagé
41 ° F
Paraît 37 ° F
N
7
Vent Variable Vent de SE

Aujourd'hui
Haut(e) -- | Bas -- ° F
--% Risque de précip.
Hier
Haut(e) -- | Bas -- ° F
Precip. -- pouce
7:35 AM 5:47 PM
Lune montante, 33% visible
Pression 29.84 pouce
Visibilité 10.0 Miles terrestres
Nuages Ciel dégagé
Refroidissement éolien 37 ° F
Point de rosée 26 ° F
Humidité 56%
Précipitations 0.00 pouce
Profondeur de la couche neigeuse Non disponible.
UV 3 sur 12
Pollen .30 sur 12
Qualité de l'air Non disponible.
Flu Activity Non disponible.
METAR KTNB 251555Z AUTO 14006KT 10SM CLR 05/M03 A2984 RMK AO2 T00511031

More Conditions Fewer Conditions

Pression 29.84 pouce
Visibilité 10.0 Miles terrestres
Nuages Ciel dégagé
Refroidissement éolien 37 ° F
Point de rosée 26 ° F
Humidité 56%
Précipitations 0.00 pouce
Profondeur de la couche neigeuse Non disponible.
UV 3 sur 12
Pollen .30 sur 12
Qualité de l'air Non disponible.
Flu Activity Non disponible.
METAR KTNB 251555Z AUTO 14006KT 10SM CLR 05/M03 A2984 RMK AO2 T00511031

More Conditions Fewer Conditions

10-Day Weather Forecast

Almanac

Astronomie

Jan. 25, 2015 Lever Coucher
Temps réel
Crépuscule civil
Crépuscule nautique
Crépuscule astronomique
Lune
Durée de lumière visible
Longueur du jour
Tomorrow will be .
, % of the Moon is Illuminated

Extrêmes aujourd'hui

State Highs State Lows

Community

WunderPhotos

Upload Photos

1,789,939 Photos téléchargées !

WunderBlogs® & News

Nearby

Qualité de l'air

  Qualité de l'air Indice de la qualité de l'air Polluant
Not available.

Épaisseur de neige

Station Depth Altitude

Activité sismique

Ville Distance Mag. Time & Date
Minimum magnitude displayed is 2.5.

Températures des eaux côtières

Lieu Température

Stations météo à proximité